sensor_id;sensor_type;location;lat;lon;timestamp;temperature;humidity
40960;DHT22;27842;52.272;8.052;2024-01-10T06:10:06;-4.30;94.30
40960;DHT22;27842;52.272;8.052;2024-01-10T06:12:32;-4.30;94.60
40960;DHT22;27842;52.272;8.052;2024-01-10T06:15:10;-4.20;94.60
40960;DHT22;27842;52.272;8.052;2024-01-10T06:21:08;-4.30;94.60
40960;DHT22;27842;52.272;8.052;2024-01-10T06:23:34;-4.30;94.70
40960;DHT22;27842;52.272;8.052;2024-01-10T06:26:00;-4.30;94.80
40960;DHT22;27842;52.272;8.052;2024-01-10T06:28:26;-4.30;94.80
40960;DHT22;27842;52.272;8.052;2024-01-10T06:30:52;-4.30;94.80
40960;DHT22;27842;52.272;8.052;2024-01-10T06:33:18;-4.20;94.70
40960;DHT22;27842;52.272;8.052;2024-01-10T06:35:45;-4.20;94.60
40960;DHT22;27842;52.272;8.052;2024-01-10T06:38:11;-4.10;94.60
40960;DHT22;27842;52.272;8.052;2024-01-10T06:40:37;-4.20;94.50
40960;DHT22;27842;52.272;8.052;2024-01-10T06:43:05;-4.20;94.40
40960;DHT22;27842;52.272;8.052;2024-01-10T06:45:33;-4.10;94.40
40960;DHT22;27842;52.272;8.052;2024-01-10T06:47:59;-4.20;94.40
40960;DHT22;27842;52.272;8.052;2024-01-10T06:50:24;-4.20;94.40
40960;DHT22;27842;52.272;8.052;2024-01-10T06:52:50;-4.30;94.50
40960;DHT22;27842;52.272;8.052;2024-01-10T06:55:16;-4.30;94.60
40960;DHT22;27842;52.272;8.052;2024-01-10T06:57:43;-4.30;94.80
40960;DHT22;27842;52.272;8.052;2024-01-10T07:00:09;-4.40;94.80
40960;DHT22;27842;52.272;8.052;2024-01-10T07:02:37;-4.40;94.80
40960;DHT22;27842;52.272;8.052;2024-01-10T07:05:07;-4.40;94.90
40960;DHT22;27842;52.272;8.052;2024-01-10T07:07:32;-4.40;95.00
40960;DHT22;27842;52.272;8.052;2024-01-10T07:10:00;-4.30;94.90
40960;DHT22;27842;52.272;8.052;2024-01-10T07:12:34;-4.30;94.70
40960;DHT22;27842;52.272;8.052;2024-01-10T07:18:24;-4.30;94.80
40960;DHT22;27842;52.272;8.052;2024-01-10T07:20:49;-4.30;94.80
40960;DHT22;27842;52.272;8.052;2024-01-10T07:23:15;-4.40;94.90
40960;DHT22;27842;52.272;8.052;2024-01-10T07:25:41;-4.40;94.90
40960;DHT22;27842;52.272;8.052;2024-01-10T08:20:18;-4.40;94.90
40960;DHT22;27842;52.272;8.052;2024-01-10T08:22:47;-4.40;94.90
40960;DHT22;27842;52.272;8.052;2024-01-10T08:25:12;-4.40;94.90
40960;DHT22;27842;52.272;8.052;2024-01-10T08:27:41;-4.40;94.90
40960;DHT22;27842;52.272;8.052;2024-01-10T08:30:07;-4.40;94.90
40960;DHT22;27842;52.272;8.052;2024-01-10T08:32:35;-4.40;94.90
40960;DHT22;27842;52.272;8.052;2024-01-10T08:35:05;-4.40;94.90
40960;DHT22;27842;52.272;8.052;2024-01-10T09:14:46;-4.40;95.40
40960;DHT22;27842;52.272;8.052;2024-01-10T09:17:20;-4.40;95.60
40960;DHT22;27842;52.272;8.052;2024-01-10T09:19:46;-4.30;95.40
40960;DHT22;27842;52.272;8.052;2024-01-10T09:22:12;-4.30;95.40
40960;DHT22;27842;52.272;8.052;2024-01-10T09:24:39;-4.30;95.40
40960;DHT22;27842;52.272;8.052;2024-01-10T09:30:31;-4.20;95.40
40960;DHT22;27842;52.272;8.052;2024-01-10T09:33:24;-4.20;95.30
40960;DHT22;27842;52.272;8.052;2024-01-10T09:35:51;-4.10;95.20
40960;DHT22;27842;52.272;8.052;2024-01-10T09:38:26;-4.00;95.20
40960;DHT22;27842;52.272;8.052;2024-01-10T09:41:02;-3.90;95.10
40960;DHT22;27842;52.272;8.052;2024-01-10T09:43:30;-3.90;94.90
40960;DHT22;27842;52.272;8.052;2024-01-10T09:46:19;-3.90;95.10
40960;DHT22;27842;52.272;8.052;2024-01-10T09:48:45;-3.80;95.10
40960;DHT22;27842;52.272;8.052;2024-01-10T09:51:12;-3.70;94.90
40960;DHT22;27842;52.272;8.052;2024-01-10T09:57:13;-3.60;94.70
40960;DHT22;27842;52.272;8.052;2024-01-10T09:59:38;-3.60;94.90
40960;DHT22;27842;52.272;8.052;2024-01-10T10:02:09;-3.40;94.80
40960;DHT22;27842;52.272;8.052;2024-01-10T10:04:35;-3.30;94.50
40960;DHT22;27842;52.272;8.052;2024-01-10T10:34:08;-2.60;93.10
40960;DHT22;27842;52.272;8.052;2024-01-10T10:36:35;-2.60;92.90
40960;DHT22;27842;52.272;8.052;2024-01-10T10:39:01;-2.50;93.10
40960;DHT22;27842;52.272;8.052;2024-01-10T10:41:31;-2.50;93.00
40960;DHT22;27842;52.272;8.052;2024-01-10T10:43:57;-2.50;93.00
40960;DHT22;27842;52.272;8.052;2024-01-10T10:53:24;-2.50;92.70
40960;DHT22;27842;52.272;8.052;2024-01-10T11:00:19;-2.60;92.80
40960;DHT22;27842;52.272;8.052;2024-01-10T11:02:46;-2.70;92.90
40960;DHT22;27842;52.272;8.052;2024-01-10T11:05:12;-2.70;92.90
40960;DHT22;27842;52.272;8.052;2024-01-10T11:07:43;-2.80;93.00
40960;DHT22;27842;52.272;8.052;2024-01-10T11:10:14;-2.70;93.20
40960;DHT22;27842;52.272;8.052;2024-01-10T11:13:04;-2.70;93.10
40960;DHT22;27842;52.272;8.052;2024-01-10T11:38:43;-2.50;92.80
40960;DHT22;27842;52.272;8.052;2024-01-10T11:41:32;-2.40;92.80
40960;DHT22;27842;52.272;8.052;2024-01-10T11:49:09;-2.30;92.90
40960;DHT22;27842;52.272;8.052;2024-01-10T12:05:01;-2.00;92.50
40960;DHT22;27842;52.272;8.052;2024-01-10T12:07:27;-2.00;92.30
40960;DHT22;27842;52.272;8.052;2024-01-10T12:09:53;-1.90;92.40
40960;DHT22;27842;52.272;8.052;2024-01-10T12:12:20;-1.80;92.00
40960;DHT22;27842;52.272;8.052;2024-01-10T12:14:45;-1.80;92.10
40960;DHT22;27842;52.272;8.052;2024-01-10T12:17:11;-1.70;92.30
40960;DHT22;27842;52.272;8.052;2024-01-10T12:19:37;-1.60;92.00
40960;DHT22;27842;52.272;8.052;2024-01-10T12:22:04;-1.60;91.90
40960;DHT22;27842;52.272;8.052;2024-01-10T12:24:42;-1.60;92.20
40960;DHT22;27842;52.272;8.052;2024-01-10T12:27:12;-1.40;91.90
40960;DHT22;27842;52.272;8.052;2024-01-10T12:29:38;-1.40;91.90
40960;DHT22;27842;52.272;8.052;2024-01-10T12:32:04;-1.30;91.70
40960;DHT22;27842;52.272;8.052;2024-01-10T12:34:29;-1.20;91.80
40960;DHT22;27842;52.272;8.052;2024-01-10T12:36:55;-1.20;91.20
40960;DHT22;27842;52.272;8.052;2024-01-10T12:39:24;-1.10;91.10
40960;DHT22;27842;52.272;8.052;2024-01-10T12:41:51;-1.10;90.90
40960;DHT22;27842;52.272;8.052;2024-01-10T12:44:16;-1.00;90.80
40960;DHT22;27842;52.272;8.052;2024-01-10T12:47:02;-1.00;90.50
40960;DHT22;27842;52.272;8.052;2024-01-10T12:49:39;-0.90;90.20
40960;DHT22;27842;52.272;8.052;2024-01-10T12:55:18;-1.00;90.50
40960;DHT22;27842;52.272;8.052;2024-01-10T13:01:08;-1.00;90.60
40960;DHT22;27842;52.272;8.052;2024-01-10T13:03:34;-1.00;89.50
40960;DHT22;27842;52.272;8.052;2024-01-10T13:06:00;-1.00;90.30
40960;DHT22;27842;52.272;8.052;2024-01-10T13:08:27;-1.00;90.50
40960;DHT22;27842;52.272;8.052;2024-01-10T13:10:52;-1.10;90.70
40960;DHT22;27842;52.272;8.052;2024-01-10T13:17:06;-1.10;90.50
40960;DHT22;27842;52.272;8.052;2024-01-10T13:34:11;-1.20;90.30
40960;DHT22;27842;52.272;8.052;2024-01-10T13:36:47;-1.10;90.30
40960;DHT22;27842;52.272;8.052;2024-01-10T13:39:34;-1.10;90.20
40960;DHT22;27842;52.272;8.052;2024-01-10T13:41:59;-1.10;90.10
40960;DHT22;27842;52.272;8.052;2024-01-10T13:44:25;-1.10;90.10
40960;DHT22;27842;52.272;8.052;2024-01-10T14:10:57;-0.90;90.00
40960;DHT22;27842;52.272;8.052;2024-01-10T14:13:23;-0.80;89.90
40960;DHT22;27842;52.272;8.052;2024-01-10T14:33:12;-0.80;88.30
40960;DHT22;27842;52.272;8.052;2024-01-10T14:35:39;-0.90;88.80
40960;DHT22;27842;52.272;8.052;2024-01-10T14:38:06;-0.90;89.10
40960;DHT22;27842;52.272;8.052;2024-01-10T14:40:32;-1.00;89.20
40960;DHT22;27842;52.272;8.052;2024-01-10T14:47:03;-1.00;88.50
40960;DHT22;27842;52.272;8.052;2024-01-10T14:50:07;-1.00;88.10
40960;DHT22;27842;52.272;8.052;2024-01-10T14:52:33;-1.00;88.00
40960;DHT22;27842;52.272;8.052;2024-01-10T14:54:59;-1.10;87.60
40960;DHT22;27842;52.272;8.052;2024-01-10T14:57:28;-1.10;88.40
40960;DHT22;27842;52.272;8.052;2024-01-10T14:59:53;-1.20;88.50
40960;DHT22;27842;52.272;8.052;2024-01-10T15:02:19;-1.10;88.50
40960;DHT22;27842;52.272;8.052;2024-01-10T17:36:03;-1.90;90.90
40960;DHT22;27842;52.272;8.052;2024-01-10T17:38:29;-1.90;91.10
40960;DHT22;27842;52.272;8.052;2024-01-10T17:40:55;-2.00;91.10
40960;DHT22;27842;52.272;8.052;2024-01-10T17:43:21;-1.90;91.10
40960;DHT22;27842;52.272;8.052;2024-01-10T19:39:16;-2.30;91.90
40960;DHT22;27842;52.272;8.052;2024-01-10T19:41:42;-2.30;91.90
40960;DHT22;27842;52.272;8.052;2024-01-10T19:44:08;-2.30;91.90
40960;DHT22;27842;52.272;8.052;2024-01-10T19:46:33;-2.30;91.90
40960;DHT22;27842;52.272;8.052;2024-01-10T19:48:59;-2.30;91.80
40960;DHT22;27842;52.272;8.052;2024-01-10T19:51:24;-2.30;91.80
40960;DHT22;27842;52.272;8.052;2024-01-10T19:53:50;-2.30;91.90
40960;DHT22;27842;52.272;8.052;2024-01-10T19:56:19;-2.30;91.90
40960;DHT22;27842;52.272;8.052;2024-01-10T19:58:45;-2.30;92.00
40960;DHT22;27842;52.272;8.052;2024-01-10T20:01:10;-2.30;91.80
40960;DHT22;27842;52.272;8.052;2024-01-10T20:03:36;-2.30;91.90
40960;DHT22;27842;52.272;8.052;2024-01-10T20:06:02;-2.30;92.00
40960;DHT22;27842;52.272;8.052;2024-01-10T20:08:28;-2.30;91.90
40960;DHT22;27842;52.272;8.052;2024-01-10T20:10:54;-2.30;92.00
40960;DHT22;27842;52.272;8.052;2024-01-10T20:13:19;-2.30;92.00
40960;DHT22;27842;52.272;8.052;2024-01-10T20:15:46;-2.40;91.90
40960;DHT22;27842;52.272;8.052;2024-01-10T20:18:13;-2.30;92.00
40960;DHT22;27842;52.272;8.052;2024-01-10T20:20:38;-2.40;91.90
40960;DHT22;27842;52.272;8.052;2024-01-10T20:23:04;-2.30;91.90
40960;DHT22;27842;52.272;8.052;2024-01-10T20:25:30;-2.40;91.90
40960;DHT22;27842;52.272;8.052;2024-01-10T20:27:56;-2.40;92.00
40960;DHT22;27842;52.272;8.052;2024-01-10T20:30:21;-2.40;92.00
40960;DHT22;27842;52.272;8.052;2024-01-10T20:32:47;-2.40;91.90
40960;DHT22;27842;52.272;8.052;2024-01-10T20:35:13;-2.40;92.00
40960;DHT22;27842;52.272;8.052;2024-01-10T20:37:39;-2.40;92.10
40960;DHT22;27842;52.272;8.052;2024-01-10T20:40:06;-2.40;92.00
40960;DHT22;27842;52.272;8.052;2024-01-10T20:42:32;-2.40;92.10
40960;DHT22;27842;52.272;8.052;2024-01-10T20:44:59;-2.50;92.10
40960;DHT22;27842;52.272;8.052;2024-01-10T20:47:25;-2.40;92.10
40960;DHT22;27842;52.272;8.052;2024-01-10T20:49:57;-2.40;92.10
40960;DHT22;27842;52.272;8.052;2024-01-10T20:52:25;-2.50;92.10
40960;DHT22;27842;52.272;8.052;2024-01-10T20:54:51;-2.50;92.30
40960;DHT22;27842;52.272;8.052;2024-01-10T20:57:20;-2.50;92.20
40960;DHT22;27842;52.272;8.052;2024-01-10T20:59:47;-2.50;92.20
40960;DHT22;27842;52.272;8.052;2024-01-10T21:02:13;-2.50;92.30
40960;DHT22;27842;52.272;8.052;2024-01-10T21:04:39;-2.50;92.40
40960;DHT22;27842;52.272;8.052;2024-01-10T21:07:04;-2.50;92.40
40960;DHT22;27842;52.272;8.052;2024-01-10T21:09:32;-2.50;92.40
40960;DHT22;27842;52.272;8.052;2024-01-10T21:11:58;-2.50;92.40
40960;DHT22;27842;52.272;8.052;2024-01-10T21:14:24;-2.50;92.50
40960;DHT22;27842;52.272;8.052;2024-01-10T21:16:49;-2.50;92.60
40960;DHT22;27842;52.272;8.052;2024-01-10T21:19:16;-2.50;92.60
40960;DHT22;27842;52.272;8.052;2024-01-10T21:21:43;-2.50;92.50
40960;DHT22;27842;52.272;8.052;2024-01-10T21:24:09;-2.50;92.60
40960;DHT22;27842;52.272;8.052;2024-01-10T21:26:35;-2.50;92.60
40960;DHT22;27842;52.272;8.052;2024-01-10T21:29:00;-2.50;92.70
40960;DHT22;27842;52.272;8.052;2024-01-10T21:31:26;-2.50;92.70
40960;DHT22;27842;52.272;8.052;2024-01-10T21:33:52;-2.50;92.60
40960;DHT22;27842;52.272;8.052;2024-01-10T21:36:17;-2.50;92.60
40960;DHT22;27842;52.272;8.052;2024-01-10T21:38:43;-2.50;92.50
40960;DHT22;27842;52.272;8.052;2024-01-10T21:41:10;-2.50;92.40
40960;DHT22;27842;52.272;8.052;2024-01-10T21:43:36;-2.50;92.60
40960;DHT22;27842;52.272;8.052;2024-01-10T21:46:02;-2.60;92.60
40960;DHT22;27842;52.272;8.052;2024-01-10T21:48:28;-2.60;92.80
40960;DHT22;27842;52.272;8.052;2024-01-10T21:50:53;-2.60;92.80
40960;DHT22;27842;52.272;8.052;2024-01-10T21:53:19;-2.60;92.80
40960;DHT22;27842;52.272;8.052;2024-01-10T21:55:45;-2.60;92.80
40960;DHT22;27842;52.272;8.052;2024-01-10T21:58:14;-2.60;92.80
40960;DHT22;27842;52.272;8.052;2024-01-10T22:00:40;-2.60;92.80
40960;DHT22;27842;52.272;8.052;2024-01-10T22:03:05;-2.60;92.90
40960;DHT22;27842;52.272;8.052;2024-01-10T22:05:31;-2.60;92.90
40960;DHT22;27842;52.272;8.052;2024-01-10T22:07:57;-2.60;93.00
40960;DHT22;27842;52.272;8.052;2024-01-10T22:10:22;-2.60;92.90
40960;DHT22;27842;52.272;8.052;2024-01-10T22:12:48;-2.70;92.90
40960;DHT22;27842;52.272;8.052;2024-01-10T22:15:14;-2.70;93.00
40960;DHT22;27842;52.272;8.052;2024-01-10T22:17:39;-2.70;93.10
40960;DHT22;27842;52.272;8.052;2024-01-10T22:20:06;-2.80;93.10
40960;DHT22;27842;52.272;8.052;2024-01-10T22:22:32;-2.80;93.30
40960;DHT22;27842;52.272;8.052;2024-01-10T22:24:57;-2.80;93.30
40960;DHT22;27842;52.272;8.052;2024-01-10T22:27:23;-2.80;93.30
40960;DHT22;27842;52.272;8.052;2024-01-10T22:29:48;-2.70;93.40
40960;DHT22;27842;52.272;8.052;2024-01-10T22:32:14;-2.80;93.40
40960;DHT22;27842;52.272;8.052;2024-01-10T22:34:40;-2.80;93.50
40960;DHT22;27842;52.272;8.052;2024-01-10T22:37:06;-2.80;93.50
40960;DHT22;27842;52.272;8.052;2024-01-10T22:39:31;-2.80;93.50
40960;DHT22;27842;52.272;8.052;2024-01-10T22:41:57;-2.70;93.60
40960;DHT22;27842;52.272;8.052;2024-01-10T22:44:22;-2.80;93.50
40960;DHT22;27842;52.272;8.052;2024-01-10T22:46:48;-2.80;93.50
40960;DHT22;27842;52.272;8.052;2024-01-10T22:49:14;-2.80;93.50
40960;DHT22;27842;52.272;8.052;2024-01-10T22:51:40;-2.80;93.60
40960;DHT22;27842;52.272;8.052;2024-01-10T22:54:05;-2.90;93.60
40960;DHT22;27842;52.272;8.052;2024-01-10T22:56:32;-2.90;93.70
40960;DHT22;27842;52.272;8.052;2024-01-10T22:58:57;-2.90;93.90
40960;DHT22;27842;52.272;8.052;2024-01-10T23:01:23;-2.90;93.90
40960;DHT22;27842;52.272;8.052;2024-01-10T23:03:50;-2.90;93.90
40960;DHT22;27842;52.272;8.052;2024-01-10T23:06:16;-2.80;93.90
40960;DHT22;27842;52.272;8.052;2024-01-10T23:08:42;-2.80;93.90
40960;DHT22;27842;52.272;8.052;2024-01-10T23:11:08;-2.90;93.80
40960;DHT22;27842;52.272;8.052;2024-01-10T23:13:33;-2.90;93.80
40960;DHT22;27842;52.272;8.052;2024-01-10T23:15:59;-2.90;93.90
40960;DHT22;27842;52.272;8.052;2024-01-10T23:18:26;-2.90;93.90
40960;DHT22;27842;52.272;8.052;2024-01-10T23:20:51;-2.90;93.90
40960;DHT22;27842;52.272;8.052;2024-01-10T23:23:17;-2.90;93.90
40960;DHT22;27842;52.272;8.052;2024-01-10T23:25:42;-2.90;93.90
40960;DHT22;27842;52.272;8.052;2024-01-10T23:28:08;-2.90;94.00
40960;DHT22;27842;52.272;8.052;2024-01-10T23:30:34;-2.80;93.90
40960;DHT22;27842;52.272;8.052;2024-01-10T23:32:59;-2.90;93.90
40960;DHT22;27842;52.272;8.052;2024-01-10T23:35:25;-3.00;94.00
40960;DHT22;27842;52.272;8.052;2024-01-10T23:37:54;-3.00;94.10
40960;DHT22;27842;52.272;8.052;2024-01-10T23:40:22;-3.00;94.10
40960;DHT22;27842;52.272;8.052;2024-01-10T23:42:47;-3.00;94.20
40960;DHT22;27842;52.272;8.052;2024-01-10T23:45:13;-3.00;94.30
40960;DHT22;27842;52.272;8.052;2024-01-10T23:47:38;-3.00;94.30
40960;DHT22;27842;52.272;8.052;2024-01-10T23:50:05;-3.10;94.40
40960;DHT22;27842;52.272;8.052;2024-01-10T23:52:30;-3.10;94.40
40960;DHT22;27842;52.272;8.052;2024-01-10T23:54:56;-3.00;94.40
40960;DHT22;27842;52.272;8.052;2024-01-10T23:57:22;-3.00;94.40
40960;DHT22;27842;52.272;8.052;2024-01-10T23:59:47;-3.10;94.40
